Time;durP1;ratioP1;P1;durP2;ratioP2;P2;SDS_P1;SDS_P2;PMS_P1;PMS_P2;Temp;Humidity;BMP_temperature;BMP_pressure;BME280_temperature;BME280_humidity;BME280_pressure;Samples;Min_cycle;Max_cycle;Signal;HPM_P1;HPM_P2
2023/06/23 00:01:10;;;;;;;5.22;2.90;;;;;;;18.25;100.00;101727.81;4952559;28;20051;-79
2023/06/23 00:03:38;;;;;;;4.95;3.28;;;;;;;18.23;100.00;101727.84;4961118;28;20043;-79
2023/06/23 00:06:06;;;;;;;5.72;3.40;;;;;;;18.24;100.00;101734.03;4959008;28;20426;-80
2023/06/23 00:08:35;;;;;;;4.97;2.95;;;;;;;18.24;100.00;101729.63;4907316;28;20506;-79
2023/06/23 00:11:02;;;;;;;4.93;3.13;;;;;;;18.25;100.00;101730.50;4979489;28;20506;-80
2023/06/23 00:13:34;;;;;;;7.93;3.33;;;;;;;18.25;100.00;101736.69;4939394;28;20046;-80
2023/06/23 00:16:04;;;;;;;4.68;3.22;;;;;;;18.28;100.00;101738.47;4949572;29;20402;-79
2023/06/23 00:18:36;;;;;;;5.18;3.28;;;;;;;18.29;100.00;101737.53;4946379;29;20051;-79
2023/06/23 00:21:05;;;;;;;4.55;3.65;;;;;;;18.30;100.00;101740.19;4945448;28;20062;-79
2023/06/23 00:23:33;;;;;;;4.80;3.10;;;;;;;18.30;100.00;101753.53;4917257;28;20042;-79
2023/06/23 00:26:03;;;;;;;9.15;2.70;;;;;;;18.31;100.00;101751.72;4945233;28;20063;-79
2023/06/23 00:28:31;;;;;;;4.15;3.15;;;;;;;18.30;100.00;101758.88;4941422;28;20450;-79
2023/06/23 00:30:59;;;;;;;4.47;3.20;;;;;;;18.30;100.00;101756.19;4937474;29;20062;-79
2023/06/23 00:33:27;;;;;;;4.50;3.35;;;;;;;18.31;100.00;101763.28;4936476;29;20047;-79
2023/06/23 00:35:55;;;;;;;5.50;3.47;;;;;;;18.31;100.00;101755.28;4969779;28;20046;-79
2023/06/23 00:38:25;;;;;;;7.03;3.28;;;;;;;18.31;100.00;101759.75;4923133;28;20051;-80
2023/06/23 00:40:53;;;;;;;10.55;3.97;;;;;;;18.30;100.00;101753.53;4984574;28;20549;-79
2023/06/23 00:43:21;;;;;;;6.30;3.17;;;;;;;18.31;100.00;101755.28;4946187;28;20411;-79
2023/06/23 00:45:49;;;;;;;5.25;2.90;;;;;;;18.33;100.00;101765.94;4972388;28;20073;-79
2023/06/23 00:48:17;;;;;;;12.70;3.88;;;;;;;18.34;100.00;101761.50;4963697;28;20051;-80
2023/06/23 00:50:45;;;;;;;7.72;3.10;;;;;;;18.34;100.00;101757.03;4953727;29;20058;-79
2023/06/23 00:53:13;;;;;;;3.50;2.92;;;;;;;18.35;100.00;101769.47;4926901;28;20414;-79
2023/06/23 00:55:41;;;;;;;9.15;2.92;;;;;;;18.36;100.00;101768.56;4968210;28;20051;-80
2023/06/23 00:58:16;;;;;;;6.47;3.45;;;;;;;18.37;100.00;101766.78;4944387;28;20187;-80
2023/06/23 01:00:45;;;;;;;11.23;3.30;;;;;;;18.36;100.00;101771.25;4962795;28;20054;-81
2023/06/23 01:03:15;;;;;;;7.38;3.28;;;;;;;18.35;100.00;101773.91;4938716;29;20055;-80
2023/06/23 01:05:46;;;;;;;7.78;3.45;;;;;;;18.34;100.00;101767.72;4952539;29;20051;-80
2023/06/23 01:08:30;;;;;;;6.05;3.38;;;;;;;18.34;100.00;101769.50;4923458;28;20043;-80
2023/06/23 01:11:13;;;;;;;9.88;3.03;;;;;;;18.34;100.00;101772.16;4939573;29;20059;-80
2023/06/23 01:13:52;;;;;;;5.88;2.95;;;;;;;18.32;100.00;101769.53;4950814;29;20047;-80
2023/06/23 01:16:31;;;;;;;4.22;2.47;;;;;;;18.33;100.00;101773.94;4939567;28;20055;-80
2023/06/23 01:19:09;;;;;;;3.58;2.67;;;;;;;18.31;100.00;101773.94;4952692;29;20487;-79
2023/06/23 01:21:59;;;;;;;5.10;2.63;;;;;;;18.34;100.00;101766.84;4954064;29;20047;-79
2023/06/23 01:24:47;;;;;;;9.82;3.03;;;;;;;18.33;100.00;101765.06;4935382;28;21717;-79
2023/06/23 01:27:18;;;;;;;6.30;2.70;;;;;;;18.34;100.00;101772.16;4950753;29;20055;-80
2023/06/23 01:29:50;;;;;;;4.70;2.42;;;;;;;18.35;100.00;101765.91;4943082;28;20102;-79
2023/06/23 01:32:26;;;;;;;6.72;2.78;;;;;;;18.35;100.00;101766.78;4932162;29;20132;-80
2023/06/23 01:35:09;;;;;;;7.03;2.72;;;;;;;18.37;100.00;101764.09;4951124;29;20043;-80
2023/06/23 01:37:39;;;;;;;5.13;3.00;;;;;;;18.38;100.00;101771.22;4951688;28;20043;-80
2023/06/23 01:40:15;;;;;;;6.43;2.95;;;;;;;18.37;100.00;101777.44;4924677;28;20048;-80
2023/06/23 01:42:54;;;;;;;5.88;2.92;;;;;;;18.39;100.00;101778.31;4937481;29;20399;-79
2023/06/23 01:45:24;;;;;;;4.07;2.38;;;;;;;18.41;100.00;101773.81;4940174;28;20059;-79
2023/06/23 01:47:55;;;;;;;4.10;3.20;;;;;;;18.42;100.00;101783.59;4955479;28;20051;-79
2023/06/23 01:50:23;;;;;;;4.85;2.65;;;;;;;18.43;100.00;101788.03;4949344;29;20063;-81
2023/06/23 01:52:53;;;;;;;6.10;3.33;;;;;;;18.43;100.00;101785.34;4957874;28;20054;-79
2023/06/23 01:55:23;;;;;;;6.83;2.97;;;;;;;18.45;100.00;101791.53;4948363;29;20047;-80
2023/06/23 01:57:53;;;;;;;6.85;3.30;;;;;;;18.45;100.00;101791.53;4926580;28;20429;-80
2023/06/23 02:00:22;;;;;;;6.07;3.13;;;;;;;18.44;100.00;101790.66;4929543;29;20051;-80
2023/06/23 02:02:52;;;;;;;6.22;2.58;;;;;;;18.43;100.00;101801.38;4965462;28;20061;-79
2023/06/23 02:05:23;;;;;;;4.53;2.33;;;;;;;18.43;100.00;101796.03;4950972;29;20051;-80
2023/06/23 02:07:52;;;;;;;5.10;3.33;;;;;;;18.42;100.00;101800.50;4969002;28;20051;-79
2023/06/23 02:10:22;;;;;;;4.75;3.00;;;;;;;18.43;100.00;101809.38;4981799;28;20054;-79
2023/06/23 02:12:53;;;;;;;4.10;2.58;;;;;;;18.41;100.00;101811.19;4910917;28;20063;-81
2023/06/23 02:15:22;;;;;;;7.07;3.05;;;;;;;18.41;100.00;101819.19;4977827;28;20049;-80
2023/06/23 02:17:51;;;;;;;5.25;2.88;;;;;;;18.40;100.00;101820.09;4941083;28;20070;-79
2023/06/23 02:20:23;;;;;;;9.93;2.80;;;;;;;18.39;100.00;101813.00;4958486;28;20661;-81
2023/06/23 02:22:53;;;;;;;6.15;2.63;;;;;;;18.39;100.00;101819.25;4952351;29;20043;-80
2023/06/23 02:25:22;;;;;;;7.18;3.30;;;;;;;18.39;100.00;101824.56;4949178;29;20430;-79
2023/06/23 02:27:51;;;;;;;4.05;2.63;;;;;;;18.38;100.00;101824.59;4919875;28;20046;-80
2023/06/23 02:30:20;;;;;;;3.55;2.58;;;;;;;18.38;100.00;101827.25;4917658;29;20047;-80
2023/06/23 02:32:47;;;;;;;6.93;2.75;;;;;;;18.39;100.00;101834.34;4927018;28;20062;-79
2023/06/23 02:35:17;;;;;;;7.93;2.70;;;;;;;18.39;100.00;101829.91;4928647;29;20058;-79
2023/06/23 02:37:58;;;;;;;5.03;2.92;;;;;;;18.42;100.00;101839.66;4951271;29;20058;-79
2023/06/23 02:40:29;;;;;;;4.20;2.30;;;;;;;18.42;100.00;101835.19;4964834;28;20055;-79
2023/06/23 02:43:05;;;;;;;;;;;;;;;18.43;100.00;101836.06;4922508;28;20507;-79
2023/06/23 02:45:37;;;;;;;7.47;2.60;;;;;;;18.43;100.00;101844.06;4978508;28;19926;-79
2023/06/23 02:48:12;;;;;;;3.67;2.75;;;;;;;18.43;100.00;101842.31;4940142;28;20055;-80
2023/06/23 02:50:42;;;;;;;4.82;2.63;;;;;;;18.44;100.00;101857.38;4948718;28;20059;-80
2023/06/23 02:53:16;;;;;;;5.38;3.08;;;;;;;18.44;100.00;101854.72;4947838;29;20070;-79
2023/06/23 02:55:47;;;;;;;6.10;2.58;;;;;;;18.45;100.00;101852.94;4950092;29;20062;-79
2023/06/23 02:58:15;;;;;;;;;;;;;;;18.44;100.00;101853.84;4907475;28;20075;-80
2023/06/23 03:00:44;;;;;;;6.63;2.85;;;;;;;18.43;100.00;101862.75;4951074;29;19922;-80
2023/06/23 03:03:15;;;;;;;6.32;3.08;;;;;;;18.44;100.00;101861.84;4929459;28;20051;-80
2023/06/23 03:05:45;;;;;;;5.70;2.80;;;;;;;18.42;100.00;101856.53;4945703;29;20491;-80
2023/06/23 03:08:12;;;;;;;5.68;3.00;;;;;;;18.42;100.00;101863.66;4948336;29;20419;-79
2023/06/23 03:10:40;;;;;;;6.10;2.63;;;;;;;18.41;100.00;101859.22;4949876;29;20063;-79
2023/06/23 03:13:09;;;;;;;4.28;2.70;;;;;;;18.41;100.00;101859.22;4941528;28;20054;-79
2023/06/23 03:15:38;;;;;;;6.18;2.60;;;;;;;18.41;100.00;101869.88;4936167;28;20051;-79
2023/06/23 03:18:16;;;;;;;5.22;3.03;;;;;;;18.39;100.00;101880.63;4930695;28;20412;-81
2023/06/23 03:20:50;;;;;;;5.93;3.35;;;;;;;18.41;100.00;101880.56;4949075;29;20043;-80
2023/06/23 03:23:18;;;;;;;;;;;;;;;18.38;100.00;101881.50;4947356;29;20051;-78
2023/06/23 03:25:47;;;;;;;7.72;3.13;;;;;;;18.38;100.00;101886.84;4963846;28;19922;-79
2023/06/23 03:28:21;;;;;;;4.38;2.72;;;;;;;18.37;100.00;101892.19;4947468;29;20055;-79
2023/06/23 03:30:54;;;;;;;7.57;3.42;;;;;;;18.36;100.00;101907.31;4910633;28;20070;-80
2023/06/23 03:33:40;;;;;;;4.75;2.50;;;;;;;18.35;100.00;101904.66;4946281;29;20066;-79
2023/06/23 03:36:14;;;;;;;6.30;2.83;;;;;;;18.33;100.00;101912.69;4927064;29;20054;-79
2023/06/23 03:38:49;;;;;;;5.35;3.15;;;;;;;18.31;100.00;101910.03;4948318;29;20055;-79
2023/06/23 03:41:17;;;;;;;8.30;3.28;;;;;;;18.29;100.00;101909.16;4948276;29;20395;-79
2023/06/23 03:43:54;;;;;;;6.38;2.88;;;;;;;18.26;100.00;101916.31;4950292;29;20078;-79
2023/06/23 03:46:29;;;;;;;7.50;3.70;;;;;;;18.24;100.00;101921.69;4889545;29;20066;-79
2023/06/23 03:49:00;;;;;;;7.18;3.53;;;;;;;18.23;100.00;101919.91;4979272;28;20055;-80
2023/06/23 03:51:32;;;;;;;7.03;3.47;;;;;;;18.20;100.00;101921.72;4923894;29;20059;-79
2023/06/23 03:54:02;;;;;;;4.50;3.47;;;;;;;18.18;100.00;101921.75;4949993;29;20047;-82
2023/06/23 03:56:33;;;;;;;6.03;3.70;;;;;;;18.15;100.00;101927.13;4947664;29;20062;-79
2023/06/23 03:59:02;;;;;;;8.73;3.42;;;;;;;18.14;100.00;101930.69;4949307;29;20039;-81
2023/06/23 04:01:32;;;;;;;11.35;4.68;;;;;;;18.11;100.00;101934.28;4888023;28;20051;-78
2023/06/23 04:04:01;;;;;;;6.43;3.70;;;;;;;18.11;100.00;101922.75;4943299;28;20059;-79
2023/06/23 04:06:31;;;;;;;5.70;3.83;;;;;;;18.09;100.00;101932.50;4939857;28;20291;-80
2023/06/23 04:09:01;;;;;;;4.45;3.92;;;;;;;18.08;100.00;101941.44;4958168;28;20055;-80
2023/06/23 04:11:31;;;;;;;6.95;4.30;;;;;;;18.05;100.00;101936.13;4929663;29;20051;-80
2023/06/23 04:14:00;;;;;;;5.65;4.03;;;;;;;18.05;100.00;101946.78;4926369;29;20411;-79
2023/06/23 04:16:29;;;;;;;10.65;4.53;;;;;;;18.06;100.00;101948.56;4913989;28;20052;-79
2023/06/23 04:18:59;;;;;;;5.32;3.65;;;;;;;18.06;100.00;101943.25;4981621;28;20499;-79
2023/06/23 04:21:29;;;;;;;5.22;4.05;;;;;;;18.05;100.00;101946.78;4906979;29;20062;-80
2023/06/23 04:23:58;;;;;;;6.75;4.25;;;;;;;18.06;100.00;101937.91;4955583;28;20059;-79
2023/06/23 04:26:27;;;;;;;5.72;4.18;;;;;;;18.05;100.00;101944.13;4946943;29;20469;-79
2023/06/23 04:28:55;;;;;;;9.18;3.95;;;;;;;18.04;100.00;101937.91;4964296;28;20047;-79
2023/06/23 04:31:25;;;;;;;6.97;4.15;;;;;;;18.05;100.00;101942.38;4919588;28;20059;-79
2023/06/23 04:33:52;;;;;;;7.32;4.43;;;;;;;18.04;100.00;101929.91;4976108;28;20074;-78
2023/06/23 04:36:26;;;;;;;6.18;3.83;;;;;;;18.05;100.00;101925.44;4920820;29;20055;-78
2023/06/23 04:39:12;;;;;;;5.18;3.80;;;;;;;18.08;100.00;101939.63;4934993;28;20051;-81
2023/06/23 04:41:42;;;;;;;4.20;3.70;;;;;;;18.11;100.00;101941.41;4946691;29;20055;-79
2023/06/23 04:44:12;;;;;;;4.20;3.67;;;;;;;18.14;100.00;101940.47;4948389;29;20047;-79
2023/06/23 04:46:41;;;;;;;8.15;3.92;;;;;;;18.18;100.00;101950.22;4908707;28;20059;-79
2023/06/23 04:49:10;;;;;;;6.65;3.33;;;;;;;18.22;100.00;101951.94;4940873;29;20051;-78
2023/06/23 04:51:46;;;;;;;9.52;4.13;;;;;;;18.26;100.00;101948.34;4936215;28;20466;-79
2023/06/23 04:54:25;;;;;;;5.05;4.47;;;;;;;18.27;100.00;101959.00;4933251;28;20054;-80
2023/06/23 04:57:01;;;;;;;7.93;4.60;;;;;;;18.29;100.00;101959.84;4934254;29;20436;-80
2023/06/23 04:59:33;;;;;;;6.95;3.58;;;;;;;18.30;100.00;101966.09;4945850;29;20074;-80
2023/06/23 05:02:04;;;;;;;6.95;4.15;;;;;;;18.30;100.00;101966.97;4941800;28;20546;-80
2023/06/23 05:04:34;;;;;;;7.28;3.90;;;;;;;18.30;100.00;101961.63;4909483;28;20051;-80
2023/06/23 05:07:03;;;;;;;7.70;3.70;;;;;;;18.30;100.00;101974.97;4940237;28;20051;-80
2023/06/23 05:09:34;;;;;;;6.88;4.13;;;;;;;18.30;100.00;101979.44;4931775;28;20507;-79
2023/06/23 05:12:06;;;;;;;7.55;3.92;;;;;;;18.30;100.00;101976.78;4934778;28;20058;-80
2023/06/23 05:14:38;;;;;;;5.10;4.05;;;;;;;18.29;100.00;101983.88;4939907;28;20696;-80
2023/06/23 05:17:09;;;;;;;10.27;4.78;;;;;;;18.30;100.00;101985.66;4944790;28;20050;-79
2023/06/23 05:19:41;;;;;;;8.55;4.18;;;;;;;18.33;100.00;101984.72;4936203;28;20415;-80
2023/06/23 05:22:13;;;;;;;5.55;3.58;;;;;;;18.36;100.00;101997.19;4942794;28;20051;-80
2023/06/23 05:24:45;;;;;;;6.70;4.05;;;;;;;18.37;100.00;101997.13;4949998;29;20051;-79
2023/06/23 05:27:14;;;;;;;7.00;4.18;;;;;;;18.40;100.00;101999.78;4944457;28;20054;-79
2023/06/23 05:29:47;;;;;;;8.93;4.68;;;;;;;18.43;100.00;102001.50;4963014;28;20388;-81
2023/06/23 05:32:18;;;;;;;5.65;4.00;;;;;;;18.44;100.00;101998.84;4979987;28;20588;-80
2023/06/23 05:34:49;;;;;;;6.05;3.80;;;;;;;18.48;100.00;102003.22;4920147;28;20070;-81
2023/06/23 05:37:20;;;;;;;5.28;3.17;;;;;;;18.52;100.00;102001.41;4929379;28;20062;-81
2023/06/23 05:39:48;;;;;;;6.15;3.60;;;;;;;18.58;100.00;102008.47;4954677;28;20062;-81
2023/06/23 05:42:16;;;;;;;6.53;4.10;;;;;;;18.64;100.00;102005.75;4957155;28;20419;-80
2023/06/23 05:44:45;;;;;;;7.03;3.83;;;;;;;18.68;100.00;102000.34;4967009;28;20059;-80
2023/06/23 05:47:18;;;;;;;5.85;4.47;;;;;;;18.72;100.00;102003.84;4949256;29;20044;-80
2023/06/23 05:49:47;;;;;;;7.38;4.45;;;;;;;18.74;100.00;102006.50;4898440;28;20051;-81
2023/06/23 05:52:18;;;;;;;5.65;2.97;;;;;;;18.77;100.00;102009.13;4924329;28;20078;-81
2023/06/23 05:54:49;;;;;;;5.57;4.97;;;;;;;18.78;100.00;102010.91;4907111;29;20063;-80
2023/06/23 05:57:27;;;;;;;8.20;4.20;;;;;;;18.79;100.00;102018.91;4924319;28;20059;-82
2023/06/23 06:00:13;;;;;;;10.20;4.97;;;;;;;18.79;100.00;102015.31;4952432;29;20067;-81
2023/06/23 06:02:45;;;;;;;8.40;4.13;;;;;;;18.81;100.00;102018.91;4926292;28;20496;-80
2023/06/23 06:05:21;;;;;;;7.25;4.47;;;;;;;18.83;100.00;102033.16;4907483;28;20576;-79
2023/06/23 06:07:50;;;;;;;7.78;5.03;;;;;;;18.83;100.00;102039.34;4948430;28;20411;-80
2023/06/23 06:10:19;;;;;;;16.48;5.47;;;;;;;18.84;100.00;102043.78;4922563;28;20088;-79
2023/06/23 06:12:48;;;;;;;9.70;5.57;;;;;;;18.85;100.00;102042.00;4926477;29;20047;-79
2023/06/23 06:15:18;;;;;;;6.75;5.03;;;;;;;18.85;100.00;102042.88;4953810;28;20407;-79
2023/06/23 06:17:47;;;;;;;8.77;4.57;;;;;;;18.87;100.00;102043.75;4943314;28;20044;-79
2023/06/23 06:20:17;;;;;;;5.97;5.05;;;;;;;18.91;100.00;102047.28;4947437;28;20058;-79
2023/06/23 06:22:46;;;;;;;7.82;5.10;;;;;;;18.93;100.00;102045.47;4937980;28;20069;-79
2023/06/23 06:25:16;;;;;;;10.50;4.97;;;;;;;18.98;100.00;102048.06;4926113;29;20116;-79
2023/06/23 06:27:48;;;;;;;8.93;4.65;;;;;;;19.01;100.00;102046.25;4934337;28;20059;-80
2023/06/23 06:30:19;;;;;;;7.53;5.20;;;;;;;19.08;100.00;102052.41;4936874;29;20062;-80
2023/06/23 06:32:48;;;;;;;6.55;5.35;;;;;;;19.22;100.00;102046.88;4940456;28;20047;-80
2023/06/23 06:35:17;;;;;;;7.70;5.27;;;;;;;19.39;100.00;102044.81;4949614;29;20067;-80
2023/06/23 06:37:47;;;;;;;6.70;4.55;;;;;;;19.57;100.00;102046.34;4899556;29;20771;-80
2023/06/23 06:40:21;;;;;;;11.98;5.43;;;;;;;19.75;100.00;102049.69;4949017;28;20521;-80
2023/06/23 06:42:49;;;;;;;8.27;4.60;;;;;;;19.92;100.00;102054.75;4933887;29;20490;-80
2023/06/23 06:45:22;;;;;;;7.50;3.70;;;;;;;20.10;100.00;102057.13;4937723;28;20047;-81
2023/06/23 06:47:54;;;;;;;9.18;4.15;;;;;;;20.25;100.00;102056.84;4949387;28;20082;-80
2023/06/23 06:50:23;;;;;;;4.97;3.65;;;;;;;20.41;100.00;102069.94;4928615;29;20078;-79
2023/06/23 06:52:54;;;;;;;7.07;4.15;;;;;;;20.50;100.00;102071.59;4926309;28;20047;-80
2023/06/23 06:55:21;;;;;;;7.78;3.22;;;;;;;20.62;100.00;102084.75;4941052;28;20058;-79
2023/06/23 06:57:49;;;;;;;4.32;3.00;;;;;;;20.68;100.00;102084.66;4953242;28;20055;-80
2023/06/23 07:00:21;;;;;;;7.63;3.00;;;;;;;20.73;100.00;102084.56;4923179;29;20058;-80
2023/06/23 07:02:48;;;;;;;4.03;2.63;;;;;;;20.76;100.00;102092.56;4949841;28;24254;-79
2023/06/23 07:05:17;;;;;;;4.80;2.95;;;;;;;20.76;100.00;102092.56;4955024;28;20074;-79
2023/06/23 07:07:45;;;;;;;2.97;2.78;;;;;;;20.75;100.00;102097.00;4886357;29;20062;-80
2023/06/23 07:10:14;;;;;;;5.50;2.78;;;;;;;20.75;100.00;102105.03;4935932;28;20070;-79
2023/06/23 07:12:42;;;;;;;4.40;2.90;;;;;;;20.73;100.00;102103.31;4907273;29;20055;-79
2023/06/23 07:15:10;;;;;;;6.32;2.80;;;;;;;20.72;100.00;102105.13;4933693;29;20054;-85
2023/06/23 07:17:38;;;;;;;3.78;2.95;;;;;;;20.74;100.00;102105.09;4927932;28;20043;-85
2023/06/23 07:20:08;;;;;;;5.25;2.80;;;;;;;20.79;100.00;102103.19;4948064;29;20051;-85
2023/06/23 07:22:36;;;;;;;2.88;2.55;;;;;;;20.88;100.00;102108.38;4925710;28;20046;-85
2023/06/23 07:25:04;;;;;;;3.30;3.00;;;;;;;20.97;100.00;102116.22;4962637;28;20043;-82
2023/06/23 07:27:37;;;;;;;2.95;2.55;;;;;;;21.02;100.00;102117.03;4962755;28;20414;-86
2023/06/23 07:30:05;;;;;;;3.67;2.67;;;;;;;21.06;100.00;102115.16;4938535;29;20043;-85
2023/06/23 07:32:33;;;;;;;2.90;2.60;;;;;;;21.12;100.00;102119.50;4945888;28;20657;-85
2023/06/23 07:35:03;;;;;;;4.97;2.63;;;;;;;21.26;100.00;102113.84;4953996;29;20043;-83
2023/06/23 07:37:30;;;;;;;6.93;3.28;;;;;;;21.37;100.00;102118.06;4952871;28;20048;-84
2023/06/23 07:39:58;;;;;;;2.50;2.28;;;;;;;21.52;100.00;102116.88;4912714;29;20047;-84
2023/06/23 07:42:26;;;;;;;4.72;2.30;;;;;;;21.62;100.00;102125.59;4931230;28;20537;-85
2023/06/23 07:44:54;;;;;;;3.10;2.60;;;;;;;21.71;100.00;102130.75;4935258;28;20062;-85
2023/06/23 07:47:21;;;;;;;2.60;2.40;;;;;;;21.82;100.00;102125.16;4935635;29;20051;-85
2023/06/23 07:49:49;;;;;;;3.13;2.65;;;;;;;21.91;100.00;102126.72;4952345;29;20512;-84
2023/06/23 07:52:18;;;;;;;4.22;2.63;;;;;;;22.00;100.00;102118.44;4921107;29;20027;-85
2023/06/23 07:54:47;;;;;;;3.28;2.53;;;;;;;22.07;100.00;102116.50;4925943;28;20494;-84
2023/06/23 07:57:14;;;;;;;3.42;3.05;;;;;;;22.12;100.00;102125.34;4946026;28;20047;-86
2023/06/23 07:59:42;;;;;;;4.03;2.72;;;;;;;22.19;100.00;102121.53;4945086;29;20054;-85
2023/06/23 08:02:11;;;;;;;4.43;2.63;;;;;;;22.26;100.00;102125.00;4943098;28;20078;-85
2023/06/23 08:04:40;;;;;;;2.78;2.53;;;;;;;22.30;100.00;102121.31;4949025;29;20067;-86
2023/06/23 08:07:08;;;;;;;4.55;2.50;;;;;;;22.32;100.00;102116.78;4964042;28;20054;-85
2023/06/23 08:09:38;;;;;;;;;;;;;;;22.37;100.00;102125.63;4937394;28;20062;-85
2023/06/23 08:12:06;;;;;;;6.28;2.50;;;;;;;22.37;100.00;102123.81;4988081;28;19930;-85
2023/06/23 08:14:34;;;;;;;5.57;2.80;;;;;;;22.37;100.00;102126.47;4923281;28;20055;-85
2023/06/23 08:17:02;;;;;;;2.85;2.50;;;;;;;22.39;100.00;102131.81;4941199;28;20046;-88
2023/06/23 08:19:32;;;;;;;3.05;2.63;;;;;;;22.39;100.00;102121.94;4928499;28;20055;-85
2023/06/23 08:22:03;;;;;;;;;;;;;;;22.43;100.00;102128.13;4950183;29;20051;-85
2023/06/23 08:24:30;;;;;;;2.80;2.60;;;;;;;22.53;100.00;102137.72;4935139;28;19957;-85
2023/06/23 08:26:59;;;;;;;4.28;2.78;;;;;;;22.58;100.00;102133.09;4920821;29;20062;-84
2023/06/23 08:29:26;;;;;;;4.20;2.58;;;;;;;22.62;100.00;102133.03;4913965;28;20078;-85
2023/06/23 08:31:54;;;;;;;2.50;2.30;;;;;;;22.63;100.00;102133.00;4916506;29;20055;-85
2023/06/23 08:34:22;;;;;;;3.05;2.42;;;;;;;22.64;100.00;102145.47;4958253;28;20873;-85
2023/06/23 08:36:49;;;;;;;3.65;2.38;;;;;;;22.66;100.00;102142.75;4951564;29;20039;-84
2023/06/23 08:39:17;;;;;;;6.05;2.83;;;;;;;22.70;100.00;102149.81;4915526;29;20059;-85
2023/06/23 08:41:47;;;;;;;3.38;2.53;;;;;;;22.73;100.00;102147.06;4925216;28;20051;-86
2023/06/23 08:44:18;;;;;;;2.78;2.35;;;;;;;22.71;100.00;102152.47;4951456;29;20051;-86
2023/06/23 08:46:50;;;;;;;2.85;2.50;;;;;;;22.74;100.00;102160.44;4928671;28;20046;-84
2023/06/23 08:49:38;;;;;;;3.45;2.40;;;;;;;22.72;100.00;102164.06;4947813;28;20051;-85
2023/06/23 08:52:06;;;;;;;2.67;2.47;;;;;;;22.69;100.00;102165.06;4956588;29;20425;-86
2023/06/23 08:54:35;;;;;;;2.72;2.53;;;;;;;22.65;99.82;102173.25;4956450;29;20805;-85
2023/06/23 08:57:04;;;;;;;3.40;2.25;;;;;;;22.63;99.31;102177.75;4930092;28;20071;-85
2023/06/23 08:59:31;;;;;;;2.92;2.20;;;;;;;22.69;100.00;102185.69;4976826;28;20536;-86
2023/06/23 09:01:59;;;;;;;3.08;2.40;;;;;;;22.72;97.85;102193.63;4952525;28;20062;-85
2023/06/23 09:04:26;;;;;;;3.72;2.45;;;;;;;22.70;97.12;102190.09;4962901;28;20058;-85
2023/06/23 09:06:54;;;;;;;3.88;2.88;;;;;;;22.70;99.08;102196.38;4940127;29;20039;-84
2023/06/23 09:09:22;;;;;;;3.75;3.05;;;;;;;22.76;99.12;102196.22;4934792;29;20484;-85
2023/06/23 09:11:50;;;;;;;3.92;2.40;;;;;;;22.78;97.70;102193.50;4912280;29;20052;-85
2023/06/23 09:14:18;;;;;;;3.75;2.20;;;;;;;22.78;96.78;102193.50;4967023;28;20055;-85
2023/06/23 09:16:46;;;;;;;2.90;2.67;;;;;;;22.81;97.72;102203.28;4950158;28;20051;-84
2023/06/23 09:19:14;;;;;;;3.58;2.72;;;;;;;22.82;97.85;102203.22;4929428;28;20062;-86
2023/06/23 09:21:47;;;;;;;2.53;2.40;;;;;;;22.86;96.93;102196.84;4930816;29;20491;-84
2023/06/23 09:24:16;;;;;;;7.53;2.38;;;;;;;22.93;97.44;102209.22;4957266;28;20055;-84
2023/06/23 09:26:45;;;;;;;2.63;2.42;;;;;;;22.97;98.23;102205.50;4954797;29;20059;-84
2023/06/23 09:29:21;;;;;;;;;;;;;;;23.00;97.28;102209.91;4936804;28;20059;-84
2023/06/23 09:31:50;;;;;;;2.60;2.50;;;;;;;23.06;98.95;102204.41;4954506;28;20408;-85
2023/06/23 09:34:26;;;;;;;3.60;3.05;;;;;;;23.09;99.44;102204.31;4956602;28;20047;-84
2023/06/23 09:37:05;;;;;;;5.63;2.95;;;;;;;23.13;98.02;102213.19;4948812;29;20059;-84
2023/06/23 09:39:37;;;;;;;3.28;2.97;;;;;;;23.16;98.35;102205.91;4986143;28;20888;-85
2023/06/23 09:42:11;;;;;;;3.75;2.63;;;;;;;23.18;97.49;102210.38;4956415;29;20047;-83
2023/06/23 09:44:45;;;;;;;3.97;3.15;;;;;;;23.14;98.04;102209.56;4915199;28;20051;-85
2023/06/23 09:47:17;;;;;;;3.20;2.90;;;;;;;23.11;98.82;102223.97;4919182;28;20047;-84
2023/06/23 09:49:48;;;;;;;3.35;2.80;;;;;;;23.13;99.69;102221.25;4941663;28;20042;-85
2023/06/23 09:52:24;;;;;;;2.80;2.60;;;;;;;23.15;99.73;102217.56;4948846;29;20059;-86
2023/06/23 09:54:52;;;;;;;4.35;2.90;;;;;;;23.18;99.59;102219.31;4954047;29;20055;-84
2023/06/23 09:57:19;;;;;;;4.07;3.15;;;;;;;23.18;97.05;102224.69;4963311;28;20474;-84
2023/06/23 09:59:52;;;;;;;2.60;2.40;;;;;;;23.22;96.76;102226.38;4929781;28;20054;-84
2023/06/23 10:02:22;;;;;;;4.68;2.80;;;;;;;23.23;98.21;102228.16;4953902;28;20047;-84
2023/06/23 10:04:56;;;;;;;3.78;3.17;;;;;;;23.28;98.01;102230.69;4948427;28;20051;-84
2023/06/23 10:07:26;;;;;;;3.03;2.63;;;;;;;23.30;98.11;102229.72;4952679;28;20050;-86
2023/06/23 10:10:09;;;;;;;4.00;2.57;;;;;;;23.35;96.93;102235.84;4953774;29;20051;-85
2023/06/23 10:12:41;;;;;;;3.53;2.70;;;;;;;23.42;96.11;102236.56;4954375;29;20051;-85
2023/06/23 10:15:16;;;;;;;4.10;2.95;;;;;;;23.44;96.84;102240.09;4929285;28;20058;-84
2023/06/23 10:17:44;;;;;;;2.53;2.33;;;;;;;23.47;95.46;102241.81;4924932;29;20063;-84
2023/06/23 10:20:13;;;;;;;3.03;2.67;;;;;;;23.50;95.46;102239.91;4937830;28;20123;-83
2023/06/23 10:22:43;;;;;;;3.13;2.00;;;;;;;23.48;92.42;102236.38;4962489;28;20426;-84
2023/06/23 10:25:11;;;;;;;2.58;2.30;;;;;;;23.56;93.19;102236.16;4969643;28;20051;-83
2023/06/23 10:27:41;;;;;;;2.58;2.38;;;;;;;23.60;92.74;102237.84;4937558;28;20043;-84
2023/06/23 10:30:14;;;;;;;3.60;2.10;;;;;;;23.63;91.54;102231.47;4937171;29;20050;-81
2023/06/23 10:32:47;;;;;;;2.60;2.40;;;;;;;23.64;90.62;102241.31;4918539;28;20058;-84
2023/06/23 10:35:19;;;;;;;3.00;2.72;;;;;;;23.69;91.09;102242.06;4949342;28;20066;-85
2023/06/23 10:38:03;;;;;;;3.40;2.75;;;;;;;23.70;89.49;102246.50;4936978;29;20047;-84
2023/06/23 10:40:48;;;;;;;2.88;2.65;;;;;;;23.75;90.61;102242.75;4971354;28;20059;-83
2023/06/23 10:43:18;;;;;;;3.75;2.58;;;;;;;23.74;92.34;102241.00;4937126;29;20051;-83
2023/06/23 10:45:54;;;;;;;2.85;2.65;;;;;;;23.74;92.79;102253.56;4955235;29;20054;-83
2023/06/23 10:48:24;;;;;;;2.85;2.65;;;;;;;23.77;92.73;102249.91;4911574;28;20538;-86
2023/06/23 10:50:53;;;;;;;3.08;2.65;;;;;;;23.82;93.68;102247.97;4920103;29;20055;-83
2023/06/23 10:53:28;;;;;;;3.55;2.47;;;;;;;23.89;94.25;102250.47;4930918;29;20047;-83
2023/06/23 10:55:56;;;;;;;4.47;3.13;;;;;;;23.95;94.36;102254.78;4953550;29;20066;-81
2023/06/23 10:59:21;;;;;;;3.05;2.85;;;;;;;23.94;90.83;102250.31;4977994;28;20043;-83
2023/06/23 11:02:01;;;;;;;2.90;2.70;;;;;;;23.96;93.49;102251.13;4924043;28;20148;-83
2023/06/23 11:04:30;;;;;;;6.78;3.35;;;;;;;24.03;93.48;102241.06;4945949;28;20053;-85
2023/06/23 11:07:16;;;;;;;2.63;2.40;;;;;;;24.09;90.71;102246.25;4924666;28;20079;-83
2023/06/23 11:09:58;;;;;;;4.68;2.53;;;;;;;24.10;91.46;102240.84;4935445;29;20074;-83
2023/06/23 11:12:31;;;;;;;3.60;2.72;;;;;;;24.18;93.43;102245.06;4983960;28;20047;-84
2023/06/23 11:15:15;;;;;;;3.67;2.53;;;;;;;24.18;93.07;102248.66;4940416;28;20498;-83
2023/06/23 11:18:01;;;;;;;2.97;2.67;;;;;;;24.20;94.13;102254.88;4903432;29;20047;-84
2023/06/23 11:20:39;;;;;;;3.88;2.92;;;;;;;24.25;92.99;102252.94;4942900;28;20047;-85
2023/06/23 11:23:14;;;;;;;2.63;2.42;;;;;;;24.19;92.75;102258.50;4942587;28;20046;-84
2023/06/23 11:25:47;;;;;;;6.35;2.63;;;;;;;24.18;94.94;102267.53;4943704;28;20047;-83
2023/06/23 11:28:38;;;;;;;3.53;3.22;;;;;;;24.23;95.54;102273.63;4948744;28;20055;-84
2023/06/23 11:31:08;;;;;;;5.25;3.50;;;;;;;24.25;95.10;102269.09;4931990;29;20054;-80
2023/06/23 11:33:40;;;;;;;3.72;3.28;;;;;;;24.24;96.39;102271.84;4923305;28;20047;-82
2023/06/23 11:36:16;;;;;;;3.45;3.15;;;;;;;24.27;95.97;102269.03;4918961;28;20062;-82
2023/06/23 11:38:44;;;;;;;3.92;3.45;;;;;;;24.37;96.24;102267.81;4939418;28;20043;-82